Time;durP1;ratioP1;P1;durP2;ratioP2;P2;SDS_P1;SDS_P2;PMS_P1;PMS_P2;Temp;Humidity;BMP_temperature;BMP_pressure;BME280_temperature;BME280_humidity;BME280_pressure;Samples;Min_cycle;Max_cycle;Signal;HPM_P1;HPM_P2
2023/03/22 00:00:44;;;;;;;13.82;5.47;;;10.50;99.90;;;;;;5071188;28;20481;-90
2023/03/22 00:03:10;;;;;;;13.15;5.00;;;10.40;99.90;;;;;;5070671;28;20469;-91
2023/03/22 00:05:36;;;;;;;11.05;4.22;;;10.40;99.90;;;;;;5071610;28;21058;-92
2023/03/22 00:08:05;;;;;;;12.27;4.65;;;10.40;99.90;;;;;;5087040;28;20521;-93
2023/03/22 00:10:31;;;;;;;12.88;4.50;;;10.40;99.90;;;;;;5071710;28;20406;-91
2023/03/22 00:12:57;;;;;;;13.55;4.65;;;10.40;99.90;;;;;;5070878;28;20730;-91
2023/03/22 00:15:23;;;;;;;11.02;4.43;;;10.30;99.90;;;;;;5070780;28;20539;-91
2023/03/22 00:17:49;;;;;;;11.35;3.83;;;10.30;99.90;;;;;;5070775;28;20429;-91
2023/03/22 00:20:16;;;;;;;11.75;3.90;;;10.30;99.90;;;;;;5087390;28;20928;-92
2023/03/22 00:22:42;;;;;;;9.45;3.67;;;10.20;99.90;;;;;;5088275;28;20413;-92
2023/03/22 00:25:09;;;;;;;9.48;3.42;;;10.20;99.90;;;;;;5086682;28;20398;-90
2023/03/22 00:27:35;;;;;;;10.68;3.35;;;10.20;99.90;;;;;;5071411;28;20488;-94
2023/03/22 00:30:02;;;;;;;11.07;3.10;;;10.20;99.90;;;;;;5070569;28;20402;-92
2023/03/22 00:32:28;;;;;;;7.25;2.25;;;10.20;99.90;;;;;;5087452;28;20976;-92
2023/03/22 00:34:53;;;;;;;10.07;3.00;;;10.20;99.90;;;;;;5070363;28;20505;-91
2023/03/22 00:37:19;;;;;;;9.38;2.60;;;10.20;99.90;;;;;;5070207;28;20422;-92
2023/03/22 00:39:45;;;;;;;8.70;2.45;;;10.20;99.90;;;;;;5070820;28;20480;-92
2023/03/22 00:42:10;;;;;;;11.35;2.33;;;10.20;99.90;;;;;;5070276;28;20988;-93
2023/03/22 00:44:36;;;;;;;8.80;2.30;;;10.10;99.90;;;;;;5070881;28;20406;-92
2023/03/22 00:47:02;;;;;;;10.07;1.90;;;10.20;99.90;;;;;;5086440;28;20989;-93
2023/03/22 00:49:28;;;;;;;8.98;2.33;;;10.40;99.90;;;;;;5071165;28;21030;-91
2023/03/22 00:51:55;;;;;;;7.50;1.75;;;10.30;99.90;;;;;;5086915;28;20409;-92
2023/03/22 00:54:20;;;;;;;8.32;2.22;;;10.00;99.90;;;;;;5070441;28;20401;-92
2023/03/22 00:56:48;;;;;;;10.50;1.80;;;10.10;99.90;;;;;;5086404;28;20870;-91
2023/03/22 00:59:14;;;;;;;7.28;1.58;;;10.10;99.90;;;;;;5070121;28;20440;-92
2023/03/22 01:01:40;;;;;;;9.77;1.88;;;10.10;99.90;;;;;;5070404;28;20437;-91
2023/03/22 01:04:06;;;;;;;9.07;1.60;;;10.10;99.90;;;;;;5086017;28;20414;-90
2023/03/22 01:06:32;;;;;;;8.23;1.77;;;10.10;99.90;;;;;;5087820;28;20390;-91
2023/03/22 01:08:58;;;;;;;8.73;1.40;;;10.10;99.90;;;;;;5085947;28;20405;-90
2023/03/22 01:11:24;;;;;;;7.68;1.00;;;10.10;99.90;;;;;;5086832;28;20410;-91
2023/03/22 01:13:50;;;;;;;6.55;1.10;;;10.10;99.90;;;;;;5086251;28;20402;-91
2023/03/22 01:16:17;;;;;;;8.77;1.10;;;10.30;99.90;;;;;;5070034;28;20831;-91
2023/03/22 01:18:43;;;;;;;7.80;1.08;;;10.10;99.90;;;;;;5069711;28;20453;-92
2023/03/22 01:21:09;;;;;;;8.40;0.80;;;10.00;99.90;;;;;;5085822;28;20433;-95
2023/03/22 01:23:35;;;;;;;8.02;0.77;;;10.00;99.90;;;;;;5087157;28;20913;-93
2023/03/22 01:26:02;;;;;;;6.80;0.70;;;10.00;99.90;;;;;;5086101;28;20398;-93
2023/03/22 01:28:28;;;;;;;7.70;0.85;;;10.00;99.90;;;;;;5069990;28;20410;-93
2023/03/22 01:30:54;;;;;;;7.32;0.80;;;10.00;99.90;;;;;;5069421;28;20402;-90
2023/03/22 01:33:20;;;;;;;8.32;1.30;;;10.00;99.90;;;;;;5086666;28;20410;-91
2023/03/22 01:35:46;;;;;;;7.80;0.82;;;10.10;99.90;;;;;;5084813;28;20398;-93
2023/03/22 01:38:12;;;;;;;7.57;0.90;;;10.10;99.90;;;;;;5068781;28;20982;-93
2023/03/22 01:40:38;;;;;;;7.57;1.15;;;10.00;99.90;;;;;;5086376;28;20986;-93
2023/03/22 01:43:05;;;;;;;8.57;1.08;;;9.90;99.90;;;;;;5068742;28;20413;-92
2023/03/22 01:45:33;;;;;;;7.55;0.73;;;10.00;99.90;;;;;;5086847;28;20402;-92
2023/03/22 01:48:21;;;;;;;6.77;1.10;;;10.00;99.90;;;;;;5068800;28;20503;-91
2023/03/22 01:51:10;;;;;;;7.85;0.90;;;10.00;99.90;;;;;;5069028;28;20402;-93
2023/03/22 01:53:41;;;;;;;8.52;1.05;;;9.80;99.90;;;;;;5086214;28;20406;-92
2023/03/22 01:56:09;;;;;;;10.23;1.20;;;9.80;99.90;;;;;;5068806;28;20765;-91
2023/03/22 01:58:36;;;;;;;8.63;1.00;;;10.20;99.90;;;;;;5069601;28;20481;-92
2023/03/22 02:01:04;;;;;;;6.28;0.75;;;10.00;99.90;;;;;;5085105;28;20401;-91
2023/03/22 02:03:53;;;;;;;6.97;0.98;;;9.70;99.90;;;;;;5085842;28;20390;-91
2023/03/22 02:06:20;;;;;;;7.85;1.08;;;9.80;99.90;;;;;;5068828;28;20590;-90
2023/03/22 02:08:45;;;;;;;9.05;0.90;;;9.80;99.90;;;;;;5084825;28;20410;-93
2023/03/22 02:11:16;;;;;;;9.23;0.93;;;10.00;99.90;;;;;;5085794;28;23161;-93
2023/03/22 02:13:50;;;;;;;6.03;0.70;;;10.00;99.90;;;;;;5067814;28;20996;-91
2023/03/22 02:16:35;;;;;;;6.55;1.00;;;9.80;99.90;;;;;;5069267;28;20807;-92
2023/03/22 02:19:45;;;;;;;7.43;0.98;;;9.80;99.90;;;;;;5085737;28;20455;-91
2023/03/22 02:22:37;;;;;;;8.40;0.90;;;9.90;99.90;;;;;;5084989;28;20773;-91
2023/03/22 02:25:44;;;;;;;8.35;0.90;;;9.90;99.90;;;;;;5069181;28;20446;-92
2023/03/22 02:29:07;;;;;;;8.48;1.10;;;9.90;99.90;;;;;;5039536;28;20408;-90
2023/03/22 02:32:11;;;;;;;8.77;1.00;;;9.90;99.90;;;;;;5010290;28;20413;-92
2023/03/22 02:35:14;;;;;;;6.93;0.85;;;9.90;99.90;;;;;;5010420;28;20501;-92
2023/03/22 02:38:08;;;;;;;8.73;0.90;;;9.90;99.90;;;;;;5068916;28;20421;-92
2023/03/22 02:40:50;;;;;;;8.90;1.33;;;9.90;99.90;;;;;;5068571;28;20414;-93
2023/03/22 02:43:37;;;;;;;9.80;1.00;;;9.80;99.90;;;;;;5067618;28;20471;-90
2023/03/22 02:46:26;;;;;;;8.90;1.08;;;9.80;99.90;;;;;;5068835;28;20418;-93
2023/03/22 02:49:07;;;;;;;8.13;0.80;;;9.90;99.90;;;;;;5085245;28;20822;-90
2023/03/22 02:51:44;;;;;;;10.80;1.38;;;9.90;99.90;;;;;;5085085;28;20816;-91
2023/03/22 02:54:14;;;;;;;8.07;0.77;;;9.90;99.90;;;;;;5085482;28;20425;-90
2023/03/22 02:56:43;;;;;;;9.55;0.98;;;9.90;99.90;;;;;;5067071;28;20398;-91
2023/03/22 02:59:11;;;;;;;8.88;1.02;;;9.90;99.90;;;;;;5068714;28;20406;-92
2023/03/22 03:01:48;;;;;;;7.30;1.03;;;10.00;99.90;;;;;;5084499;28;20421;-90
2023/03/22 03:04:23;;;;;;;9.75;1.20;;;10.00;99.90;;;;;;5084405;28;20406;-91
2023/03/22 03:06:51;;;;;;;9.93;1.05;;;10.30;99.90;;;;;;5084920;28;20459;-90
2023/03/22 03:09:19;;;;;;;9.27;0.80;;;10.00;99.90;;;;;;5067434;28;20437;-90
2023/03/22 03:11:48;;;;;;;7.75;1.00;;;10.10;99.90;;;;;;5085526;28;20844;-90
2023/03/22 03:14:29;;;;;;;7.72;1.05;;;10.20;99.90;;;;;;5100440;28;20406;-91
2023/03/22 03:17:33;;;;;;;8.70;1.30;;;10.10;99.90;;;;;;5084798;28;20475;-90
2023/03/22 03:20:20;;;;;;;8.35;0.93;;;10.10;99.90;;;;;;5068394;28;20417;-91
2023/03/22 03:22:52;;;;;;;8.82;1.10;;;10.10;99.90;;;;;;5067134;28;20428;-90
2023/03/22 03:25:26;;;;;;;7.60;0.88;;;10.10;99.90;;;;;;5068323;28;20493;-91
2023/03/22 03:27:56;;;;;;;8.75;1.30;;;10.10;99.90;;;;;;5067493;28;20413;-92
2023/03/22 03:30:37;;;;;;;11.77;1.30;;;10.40;99.90;;;;;;5068115;28;21034;-91
2023/03/22 03:33:11;;;;;;;10.02;1.48;;;10.20;99.90;;;;;;5080720;28;20409;-89
2023/03/22 03:35:47;;;;;;;6.57;1.17;;;10.10;99.90;;;;;;5066650;28;20418;-90
2023/03/22 03:38:17;;;;;;;8.13;1.35;;;10.10;99.90;;;;;;5068722;28;20433;-91
2023/03/22 03:41:02;;;;;;;9.98;1.30;;;10.10;99.90;;;;;;5084203;28;20483;-90
2023/03/22 03:43:28;;;;;;;8.00;1.20;;;10.10;99.90;;;;;;5067839;28;20417;-91
2023/03/22 03:45:54;;;;;;;9.30;1.10;;;10.10;99.90;;;;;;5084917;28;20920;-90
2023/03/22 03:48:28;;;;;;;8.30;0.90;;;10.30;99.90;;;;;;5066935;28;20402;-91
2023/03/22 03:50:56;;;;;;;10.10;1.13;;;10.10;99.90;;;;;;5085143;28;20418;-92
2023/03/22 03:53:22;;;;;;;10.37;1.17;;;10.00;99.90;;;;;;5083703;28;20788;-90
2023/03/22 03:55:47;;;;;;;10.20;1.00;;;10.10;99.90;;;;;;5067644;28;20413;-91
2023/03/22 03:58:15;;;;;;;12.10;1.40;;;10.10;99.90;;;;;;5067360;28;20430;-90
2023/03/22 04:00:41;;;;;;;9.25;1.42;;;10.10;99.90;;;;;;5087783;28;20405;-91
2023/03/22 04:03:07;;;;;;;10.38;1.80;;;10.10;99.90;;;;;;5071140;28;20414;-90
2023/03/22 04:05:32;;;;;;;10.43;1.27;;;10.20;99.90;;;;;;5070589;28;20469;-94
2023/03/22 04:07:58;;;;;;;11.02;1.52;;;10.10;99.90;;;;;;5105483;28;20417;-90
2023/03/22 04:10:24;;;;;;;10.23;1.43;;;10.10;99.90;;;;;;5070512;28;20406;-91
2023/03/22 04:12:49;;;;;;;9.07;1.70;;;10.10;99.90;;;;;;5072161;28;20409;-92
2023/03/22 04:15:15;;;;;;;10.02;1.80;;;10.10;99.90;;;;;;5070912;28;20409;-92
2023/03/22 04:17:41;;;;;;;9.18;1.80;;;10.10;99.90;;;;;;5070674;28;20422;-91
2023/03/22 04:20:09;;;;;;;8.65;2.15;;;10.00;99.90;;;;;;5071199;28;20416;-91
2023/03/22 04:22:39;;;;;;;10.55;2.30;;;10.10;99.90;;;;;;5070367;28;20402;-90
2023/03/22 04:25:12;;;;;;;9.63;1.52;;;10.10;99.90;;;;;;5071396;28;20447;-89
2023/03/22 04:27:41;;;;;;;10.43;1.90;;;10.00;99.90;;;;;;5069770;28;20429;-91
2023/03/22 04:30:10;;;;;;;8.40;1.70;;;10.10;99.90;;;;;;5071268;28;20405;-92
2023/03/22 04:32:36;;;;;;;7.35;1.30;;;10.10;99.90;;;;;;5086615;28;20463;-91
2023/03/22 04:35:02;;;;;;;6.75;1.38;;;10.10;99.90;;;;;;5070741;28;20413;-91
2023/03/22 04:37:30;;;;;;;8.50;1.77;;;10.10;99.90;;;;;;5087536;28;20524;-92
2023/03/22 04:39:56;;;;;;;11.07;1.83;;;10.10;99.90;;;;;;5087391;28;20467;-91
2023/03/22 04:42:22;;;;;;;11.05;2.47;;;10.10;99.90;;;;;;5070736;28;20413;-91
2023/03/22 04:44:47;;;;;;;8.27;2.70;;;10.00;99.90;;;;;;5086785;28;20406;-93
2023/03/22 04:47:13;;;;;;;10.18;2.70;;;10.00;99.90;;;;;;5087767;28;20776;-91
2023/03/22 04:49:39;;;;;;;9.43;3.10;;;10.10;99.90;;;;;;5069402;28;20471;-91
2023/03/22 04:52:05;;;;;;;9.45;3.10;;;10.00;99.90;;;;;;5070936;28;20413;-89
2023/03/22 04:54:30;;;;;;;9.32;2.70;;;10.10;99.90;;;;;;5069860;28;20932;-91
2023/03/22 04:56:56;;;;;;;9.53;3.13;;;10.20;99.90;;;;;;5069827;28;20545;-91
2023/03/22 04:59:22;;;;;;;10.07;3.40;;;10.00;99.90;;;;;;5086856;28;20422;-91
2023/03/22 05:01:48;;;;;;;8.15;3.40;;;10.20;99.90;;;;;;5086324;28;20402;-92
2023/03/22 05:04:15;;;;;;;9.15;3.42;;;10.00;99.90;;;;;;5087791;28;20834;-93
2023/03/22 05:06:41;;;;;;;11.35;3.70;;;10.00;99.90;;;;;;5069388;28;20394;-90
2023/03/22 05:09:06;;;;;;;10.95;4.25;;;10.10;99.90;;;;;;5070743;28;20414;-91
2023/03/22 05:11:32;;;;;;;10.60;4.40;;;10.10;99.90;;;;;;5085932;28;20727;-91
2023/03/22 05:13:58;;;;;;;12.32;4.95;;;10.00;99.90;;;;;;5103863;28;20410;-92
2023/03/22 05:16:24;;;;;;;10.50;4.60;;;10.10;99.90;;;;;;5069315;28;20528;-91
2023/03/22 05:18:53;;;;;;;10.98;4.63;;;10.10;99.90;;;;;;5069595;28;20429;-90
2023/03/22 05:21:27;;;;;;;12.77;5.78;;;10.00;99.90;;;;;;5086990;28;20412;-92
2023/03/22 05:23:57;;;;;;;10.73;5.70;;;10.20;99.90;;;;;;5082374;28;20402;-90
2023/03/22 05:26:25;;;;;;;11.32;6.53;;;10.00;99.90;;;;;;5070174;28;20405;-92
2023/03/22 05:28:54;;;;;;;13.95;7.10;;;10.00;99.90;;;;;;5069087;28;20398;-91
2023/03/22 05:31:21;;;;;;;14.63;6.47;;;10.00;99.90;;;;;;5069818;28;20403;-91
2023/03/22 05:33:50;;;;;;;11.40;6.93;;;10.10;99.90;;;;;;5086378;28;20463;-93
2023/03/22 05:36:18;;;;;;;14.45;7.28;;;10.00;99.90;;;;;;5069164;28;20436;-91
2023/03/22 05:38:44;;;;;;;15.10;7.75;;;10.00;99.90;;;;;;5069655;28;20437;-90
2023/03/22 05:41:11;;;;;;;14.63;7.67;;;10.10;99.90;;;;;;5085617;28;20413;-90
2023/03/22 05:43:37;;;;;;;12.80;7.43;;;10.10;99.90;;;;;;5070546;28;20409;-90
2023/03/22 05:46:07;;;;;;;14.23;8.27;;;10.10;99.90;;;;;;5085342;28;20391;-91
2023/03/22 05:48:33;;;;;;;15.15;8.32;;;10.10;99.90;;;;;;5069045;28;20446;-89
2023/03/22 05:50:59;;;;;;;15.68;8.52;;;10.20;99.90;;;;;;5068786;28;20463;-92
2023/03/22 05:53:25;;;;;;;15.40;8.93;;;10.20;99.90;;;;;;5085485;28;20772;-91
2023/03/22 05:55:51;;;;;;;14.13;9.17;;;10.20;99.90;;;;;;5069484;28;20464;-92
2023/03/22 05:58:17;;;;;;;15.93;9.30;;;10.40;99.90;;;;;;5068217;28;20548;-91
2023/03/22 06:00:44;;;;;;;14.07;8.75;;;10.20;99.90;;;;;;5069899;28;20477;-91
2023/03/22 06:03:10;;;;;;;14.50;8.80;;;10.20;99.90;;;;;;5085236;28;20769;-90
2023/03/22 06:05:36;;;;;;;16.40;9.88;;;10.40;99.90;;;;;;5103336;28;20413;-91
2023/03/22 06:08:02;;;;;;;15.38;9.27;;;10.30;99.90;;;;;;5068067;28;20421;-91
2023/03/22 06:10:28;;;;;;;17.45;9.65;;;10.30;99.90;;;;;;5085589;28;20988;-92
2023/03/22 06:12:54;;;;;;;16.60;10.02;;;10.40;99.90;;;;;;5069331;28;21137;-92
2023/03/22 06:15:20;;;;;;;15.25;10.20;;;10.40;99.90;;;;;;5085191;28;20928;-91
2023/03/22 06:17:46;;;;;;;16.58;10.77;;;10.40;99.90;;;;;;5086238;28;20421;-91
2023/03/22 06:20:14;;;;;;;17.85;11.10;;;10.90;99.90;;;;;;5067386;28;20469;-90
2023/03/22 06:22:40;;;;;;;14.57;10.15;;;10.30;99.90;;;;;;5085942;28;20390;-91
2023/03/22 06:25:08;;;;;;;14.80;10.25;;;10.30;99.90;;;;;;5085276;28;20811;-91
2023/03/22 06:27:33;;;;;;;16.48;10.98;;;10.30;99.90;;;;;;5085468;28;20405;-90
2023/03/22 06:29:59;;;;;;;16.52;11.05;;;10.30;99.90;;;;;;5085085;28;20402;-90
2023/03/22 06:32:25;;;;;;;15.60;11.65;;;10.40;99.90;;;;;;5084938;28;20405;-91
2023/03/22 06:34:55;;;;;;;16.83;11.02;;;10.30;99.90;;;;;;5085762;28;20446;-91
2023/03/22 06:37:21;;;;;;;18.40;12.25;;;10.40;99.90;;;;;;5084215;28;20418;-90
2023/03/22 06:39:47;;;;;;;17.15;10.93;;;10.60;99.90;;;;;;5086373;28;20434;-91
2023/03/22 06:42:13;;;;;;;16.35;11.80;;;10.50;99.90;;;;;;5084759;28;20784;-92
2023/03/22 06:44:42;;;;;;;17.20;12.18;;;10.50;99.90;;;;;;5068295;28;20689;-93
2023/03/22 06:47:08;;;;;;;18.60;12.68;;;11.00;99.90;;;;;;5085280;28;20394;-91
2023/03/22 06:49:34;;;;;;;16.25;11.48;;;10.60;99.90;;;;;;5085602;28;20398;-90
2023/03/22 06:52:00;;;;;;;17.70;11.45;;;10.70;99.90;;;;;;5085060;28;20459;-92
2023/03/22 06:54:26;;;;;;;16.30;11.20;;;10.70;99.90;;;;;;5084327;28;20402;-92
2023/03/22 06:56:52;;;;;;;20.02;12.43;;;10.80;99.90;;;;;;5086153;28;20409;-92
2023/03/22 06:59:18;;;;;;;16.35;11.35;;;11.10;99.90;;;;;;5084019;28;20908;-91
2023/03/22 07:01:43;;;;;;;16.40;11.23;;;10.80;99.90;;;;;;5085954;28;20409;-93
2023/03/22 07:04:09;;;;;;;17.30;11.83;;;10.90;99.90;;;;;;5084560;28;20451;-93
2023/03/22 07:06:35;;;;;;;16.67;11.13;;;11.20;99.90;;;;;;5084641;28;20398;-92
2023/03/22 07:09:01;;;;;;;16.65;11.57;;;10.90;99.90;;;;;;5084686;28;20405;-92
2023/03/22 07:11:26;;;;;;;16.73;10.65;;;10.90;99.90;;;;;;5084313;28;20390;-92
2023/03/22 07:13:53;;;;;;;15.25;10.68;;;10.80;99.90;;;;;;5085382;28;20804;-94
2023/03/22 07:16:19;;;;;;;16.53;11.07;;;10.80;99.90;;;;;;5083860;28;20495;-92
2023/03/22 07:18:45;;;;;;;18.70;11.05;;;11.10;99.90;;;;;;5068612;28;20436;-92
2023/03/22 07:21:11;;;;;;;14.60;10.65;;;11.00;99.90;;;;;;5084491;28;20405;-90
2023/03/22 07:23:37;;;;;;;17.57;10.30;;;11.00;99.90;;;;;;5085258;28;20641;-93
2023/03/22 07:26:03;;;;;;;15.77;10.10;;;10.90;99.90;;;;;;5084313;28;20431;-92
2023/03/22 07:28:28;;;;;;;15.27;10.03;;;10.90;99.90;;;;;;5084832;28;20522;-91
2023/03/22 07:31:06;;;;;;;15.73;10.02;;;11.10;99.90;;;;;;5085053;28;20401;-90
2023/03/22 07:33:32;;;;;;;14.98;10.13;;;10.90;99.90;;;;;;5084255;28;20402;-93
2023/03/22 07:35:58;;;;;;;14.38;10.13;;;10.90;99.90;;;;;;5089105;28;20390;-90
2023/03/22 07:38:24;;;;;;;16.00;9.65;;;10.90;99.90;;;;;;5070199;28;20429;-91
2023/03/22 07:40:56;;;;;;;15.63;9.90;;;11.00;99.90;;;;;;5072197;28;20398;-91
2023/03/22 07:43:22;;;;;;;13.77;9.15;;;11.10;99.90;;;;;;5071509;28;20406;-92
2023/03/22 07:45:49;;;;;;;16.38;9.32;;;11.20;99.90;;;;;;5087917;28;20412;-91
2023/03/22 07:48:16;;;;;;;13.02;8.65;;;11.30;99.90;;;;;;5071825;28;20437;-92
2023/03/22 07:50:42;;;;;;;12.32;7.78;;;11.40;99.90;;;;;;5070463;28;20470;-94
2023/03/22 07:53:08;;;;;;;15.07;8.60;;;11.30;99.90;;;;;;5072548;28;20437;-94
2023/03/22 07:55:35;;;;;;;14.23;8.55;;;11.40;99.90;;;;;;5070608;28;20402;-90
2023/03/22 07:58:01;;;;;;;14.07;8.20;;;11.30;99.90;;;;;;5071698;28;20471;-92
2023/03/22 08:00:27;;;;;;;13.20;8.30;;;11.50;99.90;;;;;;5070992;28;20454;-92
2023/03/22 08:02:53;;;;;;;12.82;7.70;;;11.30;99.90;;;;;;5071475;28;20401;-92
2023/03/22 08:05:19;;;;;;;13.65;7.75;;;11.30;99.90;;;;;;5070764;28;20485;-92
2023/03/22 08:07:45;;;;;;;14.18;7.05;;;11.80;99.90;;;;;;5070559;28;20437;-93
2023/03/22 08:10:11;;;;;;;12.88;6.55;;;11.30;99.90;;;;;;5088742;28;20763;-92
2023/03/22 08:12:37;;;;;;;12.57;6.80;;;11.50;99.90;;;;;;5087086;28;20423;-92
2023/03/22 08:15:03;;;;;;;10.50;6.13;;;11.50;99.90;;;;;;5088842;28;20452;-90
2023/03/22 08:17:29;;;;;;;14.27;6.95;;;11.40;99.90;;;;;;5069792;28;20471;-92
2023/03/22 08:19:55;;;;;;;11.70;6.25;;;11.50;99.90;;;;;;5087966;28;20452;-90
2023/03/22 08:22:24;;;;;;;11.77;6.38;;;11.80;99.90;;;;;;5070854;28;20398;-93
2023/03/22 08:24:52;;;;;;;12.88;6.78;;;11.80;99.90;;;;;;5087671;28;20493;-92
2023/03/22 08:27:18;;;;;;;12.80;6.20;;;11.70;99.90;;;;;;5071247;28;20402;-92
2023/03/22 08:29:46;;;;;;;11.23;6.18;;;12.20;99.90;;;;;;5087629;28;20769;-93
2023/03/22 08:32:11;;;;;;;13.73;6.27;;;12.10;99.90;;;;;;5071714;28;20455;-92
2023/03/22 08:34:39;;;;;;;11.80;5.80;;;12.00;99.90;;;;;;5069313;28;20398;-91
2023/03/22 08:37:06;;;;;;;11.52;6.05;;;11.90;99.90;;;;;;5071463;28;20937;-93
2023/03/22 08:39:32;;;;;;;11.55;6.03;;;11.90;99.90;;;;;;5070304;28;20489;-92
2023/03/22 08:41:57;;;;;;;11.43;5.63;;;12.00;99.90;;;;;;5070728;28;21204;-92
2023/03/22 08:44:24;;;;;;;12.63;5.97;;;12.10;99.90;;;;;;5086544;28;20409;-92
2023/03/22 08:46:50;;;;;;;12.40;5.00;;;12.00;99.90;;;;;;5070087;28;20443;-91
2023/03/22 08:49:16;;;;;;;10.85;5.13;;;11.90;99.90;;;;;;5087624;28;20441;-90
2023/03/22 08:51:42;;;;;;;11.43;5.03;;;12.00;99.90;;;;;;5069683;28;20409;-92
2023/03/22 08:54:08;;;;;;;10.20;5.17;;;11.70;99.90;;;;;;5090355;28;20422;-92
2023/03/22 08:56:36;;;;;;;12.05;5.50;;;11.80;99.90;;;;;;5087018;28;20498;-92
2023/03/22 08:59:07;;;;;;;12.57;4.97;;;11.60;99.90;;;;;;5087147;28;20501;-93
2023/03/22 09:01:34;;;;;;;11.47;5.30;;;11.50;99.90;;;;;;5087108;28;20780;-92
2023/03/22 09:04:00;;;;;;;12.68;5.30;;;11.60;99.90;;;;;;5087118;28;20466;-92
2023/03/22 09:06:26;;;;;;;11.60;4.90;;;11.50;99.90;;;;;;5087377;28;20410;-93
2023/03/22 09:08:53;;;;;;;11.02;4.78;;;11.80;99.90;;;;;;5086205;28;20406;-93
2023/03/22 09:11:19;;;;;;;12.95;4.97;;;11.70;99.90;;;;;;5088178;28;20888;-93
2023/03/22 09:13:46;;;;;;;10.98;4.65;;;11.50;99.90;;;;;;5069280;28;20868;-93
2023/03/22 09:16:12;;;;;;;11.80;5.00;;;11.50;99.90;;;;;;5070224;28;20485;-91
2023/03/22 09:18:38;;;;;;;10.25;5.13;;;11.50;99.90;;;;;;5069633;28;20436;-94
2023/03/22 09:21:06;;;;;;;14.50;5.35;;;11.40;99.90;;;;;;5086716;28;20820;-92
2023/03/22 09:23:33;;;;;;;13.80;5.90;;;11.40;99.90;;;;;;5086735;28;20436;-92
2023/03/22 09:26:00;;;;;;;13.23;4.45;;;11.30;99.90;;;;;;5086003;28;20870;-91
2023/03/22 09:28:27;;;;;;;10.13;5.20;;;11.20;99.90;;;;;;5070070;28;20416;-93
2023/03/22 09:30:53;;;;;;;11.40;4.13;;;11.10;99.90;;;;;;5068229;28;20413;-93
2023/03/22 09:33:19;;;;;;;13.43;5.13;;;11.20;99.90;;;;;;5070470;28;20398;-92
2023/03/22 09:35:45;;;;;;;11.13;5.30;;;11.10;99.90;;;;;;5068890;28;20404;-94
2023/03/22 09:38:11;;;;;;;10.93;4.70;;;11.20;99.90;;;;;;5069369;28;20444;-93
2023/03/22 09:40:48;;;;;;;11.52;4.35;;;11.20;99.90;;;;;;5085766;28;20402;-93
2023/03/22 09:43:15;;;;;;;11.18;4.32;;;11.00;99.90;;;;;;5086140;28;20456;-93
2023/03/22 09:45:46;;;;;;;11.23;4.03;;;10.80;99.90;;;;;;5070206;28;20446;-92
2023/03/22 09:48:20;;;;;;;12.70;3.70;;;11.10;99.90;;;;;;5068616;28;20413;-91
2023/03/22 09:50:50;;;;;;;9.03;3.10;;;11.30;99.90;;;;;;5069733;28;20402;-93
2023/03/22 09:53:16;;;;;;;8.48;3.40;;;10.80;99.90;;;;;;5085503;28;20900;-93
2023/03/22 09:56:07;;;;;;;11.45;3.78;;;10.90;99.90;;;;;;5068764;28;20398;-93
2023/03/22 09:58:37;;;;;;;12.10;3.58;;;10.90;99.90;;;;;;5069265;28;20521;-93
2023/03/22 10:01:15;;;;;;;7.88;3.25;;;10.60;99.90;;;;;;5068134;28;20869;-94
2023/03/22 10:04:02;;;;;;;10.13;3.80;;;10.70;99.90;;;;;;5103187;28;21003;-93
2023/03/22 10:06:29;;;;;;;9.15;3.25;;;10.80;99.90;;;;;;5068723;28;21057;-94
2023/03/22 10:09:03;;;;;;;9.90;3.67;;;10.70;99.90;;;;;;5085214;28;20901;-93
2023/03/22 10:11:43;;;;;;;8.10;3.40;;;10.80;99.90;;;;;;5069364;28;20417;-93
2023/03/22 10:14:20;;;;;;;9.35;3.90;;;10.70;99.90;;;;;;5067833;28;20406;-93
2023/03/22 10:16:46;;;;;;;10.13;3.83;;;10.70;99.90;;;;;;5069407;28;20420;-93
2023/03/22 10:19:26;;;;;;;8.07;3.57;;;10.60;99.90;;;;;;5067780;28;20438;-92
2023/03/22 10:21:54;;;;;;;8.93;3.70;;;10.60;99.90;;;;;;5085100;28;20406;-94
2023/03/22 10:24:27;;;;;;;9.40;3.42;;;10.40;99.90;;;;;;5085490;28;20958;-92
2023/03/22 10:26:52;;;;;;;9.43;3.95;;;10.50;99.90;;;;;;5084316;28;20394;-94
2023/03/22 10:29:27;;;;;;;7.43;3.17;;;10.50;99.90;;;;;;5069591;28;20416;-92
2023/03/22 10:31:54;;;;;;;10.80;3.38;;;10.20;99.90;;;;;;5084985;28;20471;-92
2023/03/22 10:34:32;;;;;;;10.75;4.20;;;10.30;99.90;;;;;;5068572;28;20426;-94
2023/03/22 10:37:02;;;;;;;10.27;3.60;;;10.30;99.90;;;;;;5067912;28;20428;-91
2023/03/22 10:39:41;;;;;;;10.27;3.38;;;10.40;99.90;;;;;;5068332;28;20413;-92
2023/03/22 10:42:16;;;;;;;10.60;4.15;;;10.20;99.90;;;;;;5068810;28;20493;-92
2023/03/22 10:44:59;;;;;;;8.60;3.30;;;10.30;99.90;;;;;;5084195;28;20819;-92
2023/03/22 10:47:40;;;;;;;7.88;3.55;;;10.20;99.90;;;;;;5067827;28;20406;-92
2023/03/22 10:50:31;;;;;;;9.73;4.70;;;10.30;99.90;;;;;;5085034;28;20441;-93
2023/03/22 10:53:05;;;;;;;10.27;5.35;;;10.30;99.90;;;;;;5079250;28;20410;-93
2023/03/22 10:55:31;;;;;;;10.32;4.03;;;10.30;99.90;;;;;;5069442;28;20493;-94
2023/03/22 10:58:15;;;;;;;11.17;4.03;;;10.40;99.90;;;;;;5083780;28;20837;-95
2023/03/22 11:00:51;;;;;;;8.40;3.85;;;10.50;99.90;;;;;;5084561;28;20806;-93
2023/03/22 11:03:28;;;;;;;7.50;3.60;;;10.40;99.90;;;;;;5068570;28;20488;-95
2023/03/22 11:05:59;;;;;;;9.80;4.22;;;11.00;99.90;;;;;;5083872;28;20769;-94
2023/03/22 11:08:24;;;;;;;9.13;4.03;;;10.30;99.90;;;;;;5068377;28;20456;-94
2023/03/22 11:10:57;;;;;;;6.90;3.43;;;10.60;99.90;;;;;;5083981;28;20433;-92
2023/03/22 11:13:24;;;;;;;9.77;4.43;;;10.30;99.90;;;;;;5068103;28;20402;-94
2023/03/22 11:16:01;;;;;;;7.80;3.43;;;11.00;99.90;;;;;;5067370;28;21025;-92
2023/03/22 11:18:33;;;;;;;6.78;3.42;;;10.70;99.90;;;;;;5083874;28;20442;-94
2023/03/22 11:21:05;;;;;;;8.68;3.67;;;10.90;99.90;;;;;;5068785;28;20413;-91
2023/03/22 11:23:33;;;;;;;7.75;3.10;;;10.80;99.90;;;;;;5067127;28;20444;-90
2023/03/22 11:26:08;;;;;;;9.20;3.80;;;10.70;99.90;;;;;;5068294;28;20412;-93
2023/03/22 11:28:39;;;;;;;7.00;3.33;;;10.80;99.90;;;;;;5067447;28;20406;-90
2023/03/22 11:31:14;;;;;;;7.87;3.53;;;10.90;99.90;;;;;;5084967;28;20603;-93
2023/03/22 11:34:00;;;;;;;8.70;3.40;;;10.80;99.90;;;;;;5068545;28;20765;-93
2023/03/22 11:36:27;;;;;;;8.77;3.22;;;10.90;99.90;;;;;;5066687;28;20568;-93
2023/03/22 11:39:04;;;;;;;6.55;3.25;;;11.00;99.90;;;;;;5084944;28;20754;-93
2023/03/22 11:41:35;;;;;;;8.35;3.30;;;10.80;99.90;;;;;;5067355;28;20435;-92
2023/03/22 11:44:04;;;;;;;8.13;3.90;;;11.50;99.90;;;;;;5084053;28;20524;-94
2023/03/22 11:46:31;;;;;;;8.07;3.80;;;11.10;99.90;;;;;;5068140;28;20760;-93
2023/03/22 11:49:03;;;;;;;9.27;4.03;;;11.20;99.90;;;;;;5066853;28;20454;-93
2023/03/22 11:51:32;;;;;;;7.40;3.85;;;11.00;99.90;;;;;;5068446;28;20398;-94
2023/03/22 11:54:23;;;;;;;6.90;2.80;;;11.20;99.90;;;;;;5066464;28;20406;-94
2023/03/22 11:56:49;;;;;;;7.55;3.35;;;11.00;99.90;;;;;;5059531;28;20580;-93
2023/03/22 11:59:22;;;;;;;6.63;3.00;;;11.10;99.90;;;;;;5101157;28;20981;-92
2023/03/22 12:02:10;;;;;;;7.07;3.70;;;11.10;99.90;;;;;;5083828;28;20571;-93
2023/03/22 12:04:38;;;;;;;5.78;2.58;;;11.00;99.90;;;;;;5068850;28;20445;-92
2023/03/22 12:07:13;;;;;;;6.57;3.10;;;11.10;99.90;;;;;;5083153;28;20394;-93
2023/03/22 12:09:48;;;;;;;6.63;3.38;;;11.00;99.90;;;;;;5084347;28;20825;-92
2023/03/22 12:12:18;;;;;;;6.40;2.67;;;11.20;99.90;;;;;;5083770;28;20403;-93
2023/03/22 12:15:00;;;;;;;7.95;2.85;;;10.90;99.90;;;;;;5083719;28;20888;-93
2023/03/22 12:17:41;;;;;;;7.78;3.35;;;10.90;99.90;;;;;;5084989;28;20434;-93
2023/03/22 12:20:39;;;;;;;7.60;3.60;;;11.20;99.90;;;;;;5068167;28;20428;-92
2023/03/22 12:23:15;;;;;;;8.00;3.17;;;11.10;99.90;;;;;;5071004;28;20805;-93
2023/03/22 12:26:13;;;;;;;7.90;3.78;;;11.00;99.90;;;;;;5088130;28;20434;-92
2023/03/22 12:29:05;;;;;;;7.45;3.45;;;11.10;99.90;;;;;;5052596;28;20410;-93
2023/03/22 12:31:37;;;;;;;9.45;3.40;;;11.30;99.90;;;;;;5070206;28;20421;-92
2023/03/22 12:34:07;;;;;;;7.97;3.05;;;11.10;99.90;;;;;;5071140;28;20421;-92
2023/03/22 12:36:49;;;;;;;5.65;3.30;;;11.30;99.90;;;;;;5086690;28;20412;-93
2023/03/22 12:39:32;;;;;;;7.70;3.30;;;11.10;99.90;;;;;;5072181;28;20406;-92
2023/03/22 12:42:08;;;;;;;8.20;3.60;;;11.00;99.90;;;;;;5070154;28;20405;-93
2023/03/22 12:44:40;;;;;;;8.70;4.10;;;11.00;99.90;;;;;;5086814;28;20410;-94
2023/03/22 12:47:21;;;;;;;7.50;3.80;;;10.80;99.90;;;;;;5070574;28;20445;-93
2023/03/22 12:50:01;;;;;;;9.68;5.40;;;11.00;99.90;;;;;;5069398;28;20413;-93
2023/03/22 12:52:53;;;;;;;8.32;5.22;;;11.00;99.90;;;;;;5071215;28;20495;-93
2023/03/22 12:55:35;;;;;;;12.10;6.00;;;11.00;99.90;;;;;;5087404;28;20487;-93
2023/03/22 12:58:05;;;;;;;10.65;5.85;;;10.90;99.90;;;;;;5069710;28;20932;-94